createdAt,value
2019-02-25T00:02:10.911Z,39.30
2019-02-25T00:04:39.364Z,39.90
2019-02-25T00:07:07.780Z,40.10
2019-02-25T00:09:36.247Z,40.10
2019-02-25T00:12:04.738Z,39.80
2019-02-25T00:14:33.175Z,40.20
2019-02-25T00:17:01.603Z,40.30
2019-02-25T00:19:30.060Z,40.50
2019-02-25T00:21:58.481Z,41.00
2019-02-25T00:24:26.918Z,41.20
2019-02-25T00:26:55.369Z,40.70
2019-02-25T00:29:23.798Z,41.10
2019-02-25T00:31:52.711Z,40.90
2019-02-25T00:34:21.156Z,41.00
2019-02-25T00:36:49.578Z,41.00
2019-02-25T00:39:19.540Z,40.70
2019-02-25T00:41:47.978Z,40.80
2019-02-25T00:44:16.405Z,40.90
2019-02-25T00:46:44.860Z,41.50
2019-02-25T00:49:13.338Z,41.10
2019-02-25T00:51:41.778Z,41.60
2019-02-25T00:54:10.195Z,41.90
2019-02-25T00:56:38.636Z,41.50
2019-02-25T00:59:07.056Z,41.20
2019-02-25T01:01:35.500Z,41.20
2019-02-25T01:04:03.983Z,42.10
2019-02-25T01:06:32.427Z,41.80
2019-02-25T01:09:00.845Z,42.30
2019-02-25T01:11:29.295Z,41.90
2019-02-25T01:13:57.714Z,41.70
2019-02-25T01:16:26.150Z,41.80
2019-02-25T01:18:54.579Z,42.10
2019-02-25T01:21:23.136Z,42.50
2019-02-25T01:23:51.563Z,43.00
2019-02-25T01:26:20.002Z,42.60
2019-02-25T01:28:48.442Z,42.90
2019-02-25T01:31:16.897Z,42.80
2019-02-25T01:33:45.306Z,43.10
2019-02-25T01:36:13.789Z,43.10
2019-02-25T01:38:42.248Z,42.70
2019-02-25T01:41:10.680Z,41.90
2019-02-25T01:43:39.122Z,41.60
2019-02-25T01:46:07.534Z,41.90
2019-02-25T01:48:35.979Z,42.30
2019-02-25T01:51:04.390Z,42.60
2019-02-25T01:53:32.851Z,42.20
2019-02-25T01:56:01.271Z,42.00
2019-02-25T01:58:29.720Z,42.70
2019-02-25T02:00:58.147Z,42.50
2019-02-25T02:03:26.633Z,42.50
2019-02-25T02:05:55.054Z,43.00
2019-02-25T02:08:23.502Z,42.90
2019-02-25T02:10:51.931Z,42.50
2019-02-25T02:13:20.361Z,43.40
2019-02-25T02:15:48.807Z,43.40
2019-02-25T02:18:17.231Z,43.10
2019-02-25T02:20:45.665Z,43.80
2019-02-25T02:23:14.098Z,43.80
2019-02-25T02:25:42.545Z,43.40
2019-02-25T02:28:10.962Z,43.50
2019-02-25T02:30:39.408Z,43.80
2019-02-25T02:33:07.822Z,43.10
2019-02-25T02:35:36.348Z,43.00
2019-02-25T02:38:04.938Z,43.60
2019-02-25T02:40:33.460Z,43.90
2019-02-25T02:43:02.039Z,43.90
2019-02-25T02:45:33.597Z,44.20
2019-02-25T02:48:20.016Z,43.80
2019-02-25T02:50:48.480Z,43.90
2019-02-25T02:53:16.902Z,44.30
2019-02-25T02:55:45.337Z,44.50
2019-02-25T02:58:13.782Z,44.80
2019-02-25T03:00:42.371Z,44.80
2019-02-25T03:03:10.789Z,44.20
2019-02-25T03:05:39.303Z,45.00
2019-02-25T03:08:07.718Z,44.00
2019-02-25T03:10:36.172Z,44.40
2019-02-25T03:13:04.722Z,43.80
2019-02-25T03:15:33.209Z,44.20
2019-02-25T03:18:01.650Z,45.00
2019-02-25T03:20:30.162Z,45.50
2019-02-25T03:22:58.607Z,45.50
2019-02-25T03:25:27.028Z,44.60
2019-02-25T03:27:55.482Z,44.40
2019-02-25T03:30:23.976Z,44.50
2019-02-25T03:32:52.423Z,45.10
2019-02-25T03:35:20.865Z,45.70
2019-02-25T03:37:49.363Z,45.00
2019-02-25T03:40:19.859Z,45.40
2019-02-25T03:42:49.214Z,45.30
2019-02-25T03:45:18.889Z,45.40
2019-02-25T03:47:47.332Z,45.40
2019-02-25T03:50:15.903Z,45.60
2019-02-25T03:52:44.353Z,45.60
2019-02-25T03:55:17.524Z,46.00
2019-02-25T03:57:46.417Z,45.70
2019-02-25T04:00:17.514Z,44.70
2019-02-25T04:02:46.079Z,44.40
2019-02-25T04:05:14.711Z,44.40
2019-02-25T04:07:43.294Z,45.10
2019-02-25T04:10:13.468Z,45.80
2019-02-25T04:12:42.062Z,46.20
2019-02-25T04:15:16.163Z,46.70
2019-02-25T04:17:44.741Z,46.40
2019-02-25T04:20:15.661Z,46.90
2019-02-25T04:22:44.145Z,47.20
2019-02-25T04:25:12.672Z,46.10
2019-02-25T04:27:41.102Z,46.20
2019-02-25T04:30:14.811Z,46.10
2019-02-25T04:32:43.230Z,46.50
2019-02-25T04:35:13.121Z,46.60
2019-02-25T04:37:41.542Z,46.40
2019-02-25T04:40:12.031Z,46.10
2019-02-25T04:42:40.464Z,45.70
2019-02-25T04:45:19.199Z,46.30
2019-02-25T04:47:47.652Z,46.10
2019-02-25T04:50:16.158Z,46.30
2019-02-25T04:52:44.656Z,46.80
2019-02-25T04:55:14.547Z,46.00
2019-02-25T04:57:43.151Z,46.00
2019-02-25T05:00:27.092Z,46.00
2019-02-25T05:02:55.547Z,46.20
2019-02-25T05:05:24.001Z,46.50
2019-02-25T05:07:52.417Z,46.20
2019-02-25T05:10:20.860Z,46.60
2019-02-25T05:12:59.793Z,46.70
2019-02-25T05:15:29.902Z,46.70
2019-02-25T05:17:58.317Z,47.20
2019-02-25T05:20:26.786Z,47.70
2019-02-25T05:22:55.283Z,47.20
2019-02-25T05:25:23.716Z,46.40
2019-02-25T05:27:52.158Z,46.60
2019-02-25T05:30:20.612Z,47.20
2019-02-25T05:32:49.032Z,46.90
2019-02-25T05:35:17.450Z,46.70
2019-02-25T05:37:45.894Z,47.20
2019-02-25T05:40:18.223Z,47.70
2019-02-25T05:42:46.746Z,47.90
2019-02-25T05:45:15.698Z,47.60
2019-02-25T05:47:44.216Z,47.80
2019-02-25T05:50:15.244Z,47.40
2019-02-25T05:52:43.686Z,48.00
2019-02-25T05:55:14.239Z,47.10
2019-02-25T05:57:42.813Z,47.60
2019-02-25T06:00:21.612Z,47.80
2019-02-25T06:02:50.068Z,47.10
2019-02-25T06:05:18.500Z,47.20
2019-02-25T06:07:46.967Z,47.20
2019-02-25T06:10:15.532Z,48.10
2019-02-25T06:12:44.046Z,47.60
2019-02-25T06:15:17.354Z,48.50
2019-02-25T06:17:45.787Z,49.80
2019-02-25T06:20:18.007Z,47.90
2019-02-25T06:22:46.520Z,48.90
2019-02-25T06:25:16.073Z,49.50
2019-02-25T06:27:44.625Z,49.30
2019-02-25T06:30:22.748Z,48.50
2019-02-25T06:32:51.205Z,48.60
2019-02-25T06:35:19.709Z,48.10
2019-02-25T06:37:48.164Z,47.80
2019-02-25T06:40:17.933Z,47.50
2019-02-25T06:42:46.372Z,49.00
2019-02-25T06:45:17.890Z,48.70
2019-02-25T06:47:46.327Z,48.20
2019-02-25T06:50:14.925Z,48.30
2019-02-25T06:52:43.330Z,48.90
2019-02-25T06:55:13.811Z,48.40
2019-02-25T06:57:42.302Z,48.00
2019-02-25T07:00:18.334Z,48.30
2019-02-25T07:02:46.885Z,48.20
2019-02-25T07:05:33.306Z,47.90
2019-02-25T07:08:03.384Z,47.50
2019-02-25T07:10:39.078Z,48.40
2019-02-25T07:13:11.933Z,47.80
2019-02-25T07:15:58.026Z,47.50
2019-02-25T07:18:28.168Z,47.30
2019-02-25T07:20:58.251Z,46.80
2019-02-25T07:23:37.693Z,47.00
2019-02-25T07:26:10.442Z,46.90
2019-02-25T07:28:43.227Z,47.10
2019-02-25T07:31:22.255Z,46.90
2019-02-25T07:33:52.316Z,45.80
2019-02-25T07:36:25.367Z,45.90
2019-02-25T07:39:13.586Z,45.80
2019-02-25T07:41:43.678Z,45.60
2019-02-25T07:44:13.734Z,45.90
2019-02-25T07:46:43.824Z,45.40
2019-02-25T07:49:25.469Z,45.40
2019-02-25T07:52:11.647Z,44.70
2019-02-25T07:54:47.474Z,44.60
2019-02-25T07:57:17.553Z,44.70
2019-02-25T07:59:53.075Z,44.10
2019-02-25T08:02:23.159Z,44.30
2019-02-25T08:04:59.196Z,44.20
2019-02-25T08:07:45.534Z,44.20
2019-02-25T08:10:18.338Z,44.00
2019-02-25T08:12:48.433Z,43.80
2019-02-25T08:15:21.204Z,43.80
2019-02-25T08:17:57.010Z,43.60
2019-02-25T08:20:43.390Z,43.30
2019-02-25T08:23:13.600Z,43.40
2019-02-25T08:25:49.390Z,43.30
2019-02-25T08:28:22.429Z,43.40
2019-02-25T08:31:09.192Z,43.10
2019-02-25T08:33:42.030Z,43.10
2019-02-25T08:36:17.900Z,42.40
2019-02-25T08:39:03.839Z,42.40
2019-02-25T08:41:36.732Z,42.90
2019-02-25T08:44:12.507Z,43.70
2019-02-25T08:46:42.568Z,42.90
2019-02-25T08:49:12.646Z,41.50
2019-02-25T08:51:41.114Z,41.20
2019-02-25T08:54:09.633Z,41.70
2019-02-25T08:56:38.131Z,40.00
2019-02-25T08:59:06.654Z,41.80
2019-02-25T09:01:35.089Z,40.20
2019-02-25T09:04:03.525Z,40.20
2019-02-25T09:06:31.940Z,39.60
2019-02-25T09:09:00.393Z,9.20
2019-02-25T09:11:28.802Z,8.60
2019-02-25T09:13:57.321Z,7.60
2019-02-25T09:16:25.795Z,7.90
2019-02-25T09:18:54.211Z,8.40
2019-02-25T09:21:31.417Z,8.90
2019-02-25T09:23:52.788Z,10.10
2019-02-25T09:26:21.234Z,9.60
2019-02-25T09:28:49.642Z,9.70
2019-02-25T09:31:18.101Z,10.80
2019-02-25T09:33:46.519Z,8.90
2019-02-25T09:36:14.953Z,9.40
2019-02-25T09:38:43.372Z,8.70
2019-02-25T09:41:11.803Z,8.30
2019-02-25T09:43:40.240Z,8.00
2019-02-25T09:46:08.671Z,7.30
2019-02-25T09:48:37.113Z,7.20
2019-02-25T09:51:05.544Z,7.90
2019-02-25T09:53:33.980Z,8.90
2019-02-25T09:56:02.401Z,9.70
2019-02-25T09:58:30.869Z,10.40
2019-02-25T10:00:59.286Z,9.40
2019-02-25T10:03:27.731Z,8.30
2019-02-25T10:05:56.151Z,8.00
2019-02-25T10:08:24.594Z,9.20
2019-02-25T10:10:53.089Z,9.90
2019-02-25T10:13:21.552Z,11.00
2019-02-25T10:15:49.971Z,9.70
2019-02-25T10:18:18.410Z,10.70
2019-02-25T10:20:46.823Z,9.70
2019-02-25T10:23:15.257Z,10.80
2019-02-25T10:25:43.692Z,11.20
2019-02-25T10:28:12.134Z,9.80
2019-02-25T10:30:40.568Z,9.90
2019-02-25T10:33:09.022Z,11.80
2019-02-25T10:35:37.426Z,11.90
2019-02-25T10:38:05.912Z,12.00
2019-02-25T10:40:34.361Z,13.40
2019-02-25T10:43:02.799Z,12.50
2019-02-25T10:45:31.283Z,12.10
2019-02-25T10:47:59.722Z,12.30
2019-02-25T10:50:28.802Z,13.90
2019-02-25T10:53:03.521Z,13.80
2019-02-25T10:55:50.877Z,14.30
2019-02-25T10:58:20.688Z,14.60
2019-02-25T11:00:49.116Z,12.80
2019-02-25T11:03:19.508Z,12.90
2019-02-25T11:05:47.718Z,13.40
2019-02-25T11:08:17.767Z,13.60
2019-02-25T11:10:48.729Z,14.10
2019-02-25T11:13:18.272Z,14.20
2019-02-25T11:15:48.340Z,14.50
2019-02-25T11:18:19.190Z,13.30
2019-02-25T11:20:47.208Z,13.80
2019-02-25T11:23:17.595Z,14.90
2019-02-25T11:25:45.778Z,14.80
2019-02-25T11:28:23.568Z,14.70
2019-02-25T11:30:44.972Z,14.30
2019-02-25T11:33:14.658Z,15.60
2019-02-25T11:35:43.430Z,14.70
2019-02-25T11:38:13.236Z,15.00
2019-02-25T11:40:41.684Z,14.50
2019-02-25T11:43:10.570Z,15.80
2019-02-25T11:45:40.259Z,15.90
2019-02-25T11:48:08.755Z,15.80
2019-02-25T11:50:37.200Z,14.90
2019-02-25T11:53:05.700Z,15.30
2019-02-25T11:55:34.345Z,15.20
2019-02-25T11:58:02.774Z,15.20
2019-02-25T12:00:31.358Z,15.60
2019-02-25T12:02:59.801Z,16.10
2019-02-25T12:05:29.762Z,16.60
2019-02-25T12:07:58.215Z,15.80
2019-02-25T12:10:26.631Z,15.90
2019-02-25T12:12:55.065Z,15.70
2019-02-25T12:15:23.724Z,15.90
2019-02-25T12:17:52.195Z,16.40
2019-02-25T12:20:20.664Z,16.20
2019-02-25T12:22:49.359Z,16.30
2019-02-25T12:25:20.855Z,16.80
2019-02-25T12:27:49.300Z,16.80
2019-02-25T12:30:22.862Z,16.10
2019-02-25T12:32:51.372Z,16.50
2019-02-25T12:35:19.875Z,17.30
2019-02-25T12:37:48.439Z,16.70
2019-02-25T12:40:17.306Z,17.20
2019-02-25T12:42:45.748Z,16.60
2019-02-25T12:45:15.120Z,16.70
2019-02-25T12:47:43.637Z,16.20
2019-02-25T12:50:16.490Z,16.30
2019-02-25T12:52:46.473Z,16.40
2019-02-25T12:55:19.394Z,16.90
2019-02-25T12:57:48.077Z,16.50
2019-02-25T13:00:25.861Z,16.70
2019-02-25T13:02:54.301Z,16.80
2019-02-25T13:05:23.562Z,17.20
2019-02-25T13:07:53.539Z,17.40
2019-02-25T13:10:22.120Z,17.60
2019-02-25T13:12:51.612Z,17.90
2019-02-25T13:15:24.333Z,18.40
2019-02-25T13:17:52.883Z,17.60
2019-02-25T13:20:21.407Z,18.10
2019-02-25T13:22:49.831Z,18.60
2019-02-25T13:25:24.250Z,18.90
2019-02-25T13:27:54.388Z,18.60
2019-02-25T13:30:22.970Z,18.70
2019-02-25T13:32:51.471Z,18.90
2019-02-25T13:35:20.044Z,19.70
2019-02-25T13:37:48.602Z,19.70
2019-02-25T13:40:17.786Z,20.00
2019-02-25T13:42:46.284Z,19.60
2019-02-25T13:45:21.294Z,21.20
2019-02-25T13:47:49.874Z,21.60
2019-02-25T13:50:18.939Z,20.10
2019-02-25T13:53:00.692Z,19.90
2019-02-25T13:55:22.115Z,20.40
2019-02-25T13:57:50.583Z,19.80
2019-02-25T14:00:24.435Z,19.90
2019-02-25T14:02:53.031Z,19.20
2019-02-25T14:05:22.204Z,19.30
2019-02-25T14:07:50.758Z,19.40
2019-02-25T14:10:19.944Z,19.60
2019-02-25T14:12:48.512Z,19.10
2019-02-25T14:15:21.428Z,19.40
2019-02-25T14:17:49.974Z,18.40
2019-02-25T14:20:19.863Z,18.60
2019-02-25T14:22:48.431Z,19.10
2019-02-25T14:25:28.837Z,18.60
2019-02-25T14:27:57.608Z,18.70
2019-02-25T14:30:27.058Z,18.60
2019-02-25T14:32:56.604Z,18.70
2019-02-25T14:35:28.562Z,18.60
2019-02-25T14:38:04.253Z,18.70
2019-02-25T14:40:31.672Z,18.70
2019-02-25T14:42:59.831Z,18.80
2019-02-25T14:45:31.542Z,18.60
2019-02-25T14:48:02.019Z,18.80
2019-02-25T14:50:30.000Z,18.90
2019-02-25T14:53:00.245Z,18.80
2019-02-25T14:55:28.718Z,18.80
2019-02-25T14:57:59.890Z,19.00
2019-02-25T15:00:31.424Z,19.00
2019-02-25T15:02:58.747Z,18.70
2019-02-25T15:05:27.304Z,19.10
2019-02-25T15:07:55.985Z,18.90
2019-02-25T15:10:29.014Z,18.90
2019-02-25T15:12:58.789Z,18.80
2019-02-25T15:15:24.939Z,18.60
2019-02-25T15:17:53.514Z,18.60
2019-02-25T15:20:23.452Z,18.70
2019-02-25T15:22:52.986Z,18.50
2019-02-25T15:25:21.759Z,18.50
2019-02-25T15:27:50.423Z,18.30
2019-02-25T15:30:30.739Z,18.20
2019-02-25T15:33:00.450Z,18.40
2019-02-25T15:35:31.694Z,18.40
2019-02-25T15:38:00.482Z,18.30
2019-02-25T15:40:29.228Z,18.30
2019-02-25T15:43:02.270Z,18.20
2019-02-25T15:45:32.903Z,18.20
2019-02-25T15:48:02.543Z,18.40
2019-02-25T15:50:31.171Z,18.40
2019-02-25T15:53:02.510Z,18.20
2019-02-25T15:55:30.519Z,18.30
2019-02-25T15:57:59.084Z,18.20
2019-02-25T16:00:30.013Z,18.10
2019-02-25T16:02:58.725Z,18.10
2019-02-25T16:05:29.562Z,18.10
2019-02-25T16:07:59.949Z,17.90
2019-02-25T16:10:28.399Z,17.90
2019-02-25T16:12:57.871Z,18.00
2019-02-25T16:15:27.445Z,17.90
2019-02-25T16:17:56.100Z,17.70
2019-02-25T16:20:26.771Z,17.80
2019-02-25T16:22:56.591Z,17.70
2019-02-25T16:25:27.565Z,17.80
2019-02-25T16:27:57.003Z,17.70
2019-02-25T16:30:26.730Z,17.60
2019-02-25T16:32:55.751Z,17.50
2019-02-25T16:35:24.191Z,17.50
2019-02-25T16:37:53.041Z,17.30
2019-02-25T16:40:26.451Z,17.20
2019-02-25T16:42:55.006Z,17.30
2019-02-25T16:45:28.462Z,17.40
2019-02-25T16:47:54.535Z,17.40
2019-02-25T16:50:23.248Z,17.10
2019-02-25T16:52:51.842Z,17.10
2019-02-25T16:55:22.713Z,17.00
2019-02-25T16:57:52.290Z,17.00
2019-02-25T17:00:25.347Z,17.00
2019-02-25T17:02:53.570Z,17.20
2019-02-25T17:05:22.431Z,19.10
2019-02-25T17:07:51.028Z,19.30
2019-02-25T17:10:24.090Z,19.50
2019-02-25T17:12:52.552Z,19.60
2019-02-25T17:15:21.758Z,19.70
2019-02-25T17:17:52.413Z,19.90
2019-02-25T17:20:21.597Z,20.00
2019-02-25T17:22:50.103Z,20.10
2019-02-25T17:25:18.602Z,20.20
2019-02-25T17:27:47.264Z,20.40
2019-02-25T17:30:21.662Z,20.40
2019-02-25T17:32:50.408Z,20.60
2019-02-25T17:35:21.938Z,20.60
2019-02-25T17:37:53.103Z,20.80
2019-02-25T17:40:21.437Z,20.80
2019-02-25T17:42:51.654Z,21.00
2019-02-25T17:45:25.082Z,21.30
2019-02-25T17:47:58.184Z,21.60
2019-02-25T17:50:24.976Z,21.80
2019-02-25T17:52:53.533Z,21.70
2019-02-25T17:55:25.384Z,21.70
2019-02-25T17:57:56.363Z,21.90
2019-02-25T18:00:29.823Z,22.00
2019-02-25T18:02:59.335Z,21.90
2019-02-25T18:05:28.634Z,21.90
2019-02-25T18:07:57.204Z,21.90
2019-02-25T18:10:27.253Z,57.50
2019-02-25T18:12:56.952Z,57.40
2019-02-25T18:15:32.786Z,57.60
2019-02-25T18:18:01.495Z,57.70
2019-02-25T18:20:30.622Z,57.60
2019-02-25T18:22:59.401Z,57.40
2019-02-25T18:25:28.168Z,57.70
2019-02-25T18:27:56.836Z,57.80
2019-02-25T18:30:28.287Z,57.60
2019-02-25T18:32:58.338Z,58.00
2019-02-25T18:35:27.498Z,58.80
2019-02-25T18:37:57.995Z,58.70
2019-02-25T18:40:26.487Z,58.80
2019-02-25T18:42:56.440Z,59.00
2019-02-25T18:45:25.571Z,59.10
2019-02-25T18:47:54.241Z,59.80
2019-02-25T18:50:24.720Z,59.50
2019-02-25T18:52:56.341Z,59.30
2019-02-25T18:55:27.097Z,59.70
2019-02-25T18:57:56.481Z,59.90
2019-02-25T19:00:31.409Z,60.00
2019-02-25T19:03:00.361Z,60.10
2019-02-25T19:05:31.461Z,60.10
2019-02-25T19:08:00.213Z,60.10
2019-02-25T19:10:29.047Z,60.00
2019-02-25T19:12:59.194Z,60.10
2019-02-25T19:15:28.448Z,59.80
2019-02-25T19:17:57.076Z,60.00
2019-02-25T19:20:25.679Z,60.10
2019-02-25T19:22:58.041Z,60.10
2019-02-25T19:25:25.762Z,60.20
2019-02-25T19:27:56.476Z,60.20
2019-02-25T19:30:27.837Z,60.50
2019-02-25T19:32:56.566Z,60.40
2019-02-25T19:35:27.795Z,60.40
2019-02-25T19:37:55.467Z,60.60
2019-02-25T19:40:24.745Z,60.70
2019-02-25T19:42:54.740Z,60.90
2019-02-25T19:45:24.419Z,60.80
2019-02-25T19:47:55.341Z,60.60
2019-02-25T19:50:25.361Z,60.80
2019-02-25T19:52:53.734Z,60.90
2019-02-25T19:55:23.535Z,60.90
2019-02-25T19:57:52.156Z,61.20
2019-02-25T20:00:28.248Z,60.90
2019-02-25T20:03:05.737Z,60.90
2019-02-25T20:05:29.059Z,61.20
2019-02-25T20:07:57.523Z,61.10
2019-02-25T20:10:30.028Z,61.10
2019-02-25T20:12:58.334Z,60.90
2019-02-25T20:15:26.903Z,61.30
2019-02-25T20:17:55.488Z,61.30
2019-02-25T20:20:25.635Z,61.30
2019-02-25T20:22:54.238Z,61.30
2019-02-25T20:25:25.839Z,61.10
2019-02-25T20:27:54.974Z,61.30
2019-02-25T20:30:23.625Z,61.50
2019-02-25T20:32:53.564Z,61.70
2019-02-25T20:35:22.652Z,61.80
2019-02-25T20:37:53.721Z,61.70
2019-02-25T20:40:24.120Z,61.50
2019-02-25T20:42:53.467Z,61.80
2019-02-25T20:45:26.080Z,61.70
2019-02-25T20:47:57.109Z,61.70
2019-02-25T20:50:25.745Z,61.60
2019-02-25T20:52:55.856Z,62.00
2019-02-25T20:55:24.991Z,62.30
2019-02-25T20:57:54.484Z,62.70
2019-02-25T21:00:24.405Z,62.50
2019-02-25T21:02:52.942Z,62.30
2019-02-25T21:05:22.803Z,62.90
2019-02-25T21:07:53.400Z,63.70
2019-02-25T21:10:22.730Z,63.90
2019-02-25T21:12:52.990Z,63.90
2019-02-25T21:15:22.234Z,63.60
2019-02-25T21:17:52.001Z,63.40
2019-02-25T21:20:21.502Z,62.90
2019-02-25T21:22:52.907Z,62.80
2019-02-25T21:25:24.411Z,63.20
2019-02-25T21:27:55.108Z,63.20
2019-02-25T21:30:22.038Z,63.20
2019-02-25T21:32:51.940Z,63.40
2019-02-25T21:35:23.493Z,63.80
2019-02-25T21:37:52.821Z,64.10
2019-02-25T21:40:27.128Z,63.90
2019-02-25T21:42:56.644Z,63.70
2019-02-25T21:45:27.174Z,63.60
2019-02-25T21:47:56.513Z,63.70
2019-02-25T21:50:28.408Z,64.20
2019-02-25T21:52:55.712Z,64.80
2019-02-25T21:55:27.472Z,64.80
2019-02-25T21:57:54.872Z,65.10
2019-02-25T22:00:27.085Z,65.00
2019-02-25T22:02:55.994Z,65.20
2019-02-25T22:05:24.489Z,65.60
2019-02-25T22:07:56.656Z,65.80
2019-02-25T22:10:23.131Z,65.80
2019-02-25T22:12:51.592Z,65.80
2019-02-25T22:15:22.126Z,65.90
2019-02-25T22:17:52.961Z,65.80
2019-02-25T22:20:22.587Z,65.20
2019-02-25T22:22:54.609Z,65.30
2019-02-25T22:25:22.974Z,65.70
2019-02-25T22:27:51.492Z,66.00
2019-02-25T22:30:20.175Z,66.40
2019-02-25T22:32:48.691Z,66.40
2019-02-25T22:35:17.207Z,66.10
2019-02-25T22:37:49.403Z,65.50
2019-02-25T22:40:17.237Z,65.40
2019-02-25T22:42:47.899Z,66.00
2019-02-25T22:45:20.970Z,65.80
2019-02-25T22:47:49.482Z,65.90
2019-02-25T22:50:18.070Z,66.20
2019-02-25T22:52:46.575Z,66.30
2019-02-25T22:55:17.816Z,66.90
2019-02-25T22:57:46.034Z,66.60
2019-02-25T23:00:43.370Z,66.70
2019-02-25T23:03:15.267Z,66.60
2019-02-25T23:05:43.649Z,67.10
2019-02-25T23:08:13.079Z,67.20
2019-02-25T23:10:44.488Z,67.00
2019-02-25T23:13:13.270Z,67.40
2019-02-25T23:15:43.776Z,67.80
2019-02-25T23:18:13.907Z,67.50
2019-02-25T23:20:42.015Z,67.60
2019-02-25T23:23:10.441Z,68.10
2019-02-25T23:25:38.883Z,67.80
2019-02-25T23:28:07.298Z,67.20
2019-02-25T23:30:39.098Z,67.60
2019-02-25T23:33:07.961Z,67.30
2019-02-25T23:35:36.054Z,67.20
2019-02-25T23:38:04.487Z,67.30
2019-02-25T23:40:35.330Z,67.70
2019-02-25T23:43:03.401Z,67.90
2019-02-25T23:45:33.220Z,68.00
2019-02-25T23:48:02.296Z,68.00
2019-02-25T23:50:32.322Z,68.00
2019-02-25T23:53:01.940Z,67.80
2019-02-25T23:55:30.394Z,67.80
2019-02-25T23:57:58.846Z,67.90
